This is the latest recevied weather packets stored in our database for station/object HP1CDW-11. If no packets are shown the sender has not sent any weather packets the latest 10 day(s).
| Time | Temp. | Humidity | Pressure | Rain* | Wind** | Luminosity | Snow |
|---|---|---|---|---|---|---|---|
| 1777329422 | 26.11° C | 45% | 1007.9 hPa | - | - | - | - |
| 1777328821 | 20.56° C | 48% | 1007.8 hPa | - | - | - | - |
| 1777328221 | 20.56° C | 48% | 1007.8 hPa | - | - | - | - |
| 1777327621 | 20.56° C | 51% | 1007.8 hPa | - | - | - | - |
| 1777327020 | 21.11° C | 53% | 1007.9 hPa | - | - | - | - |
| 1777326420 | 21.11° C | 51% | 1008 hPa | - | - | - | - |
| 1777325820 | 22.22° C | 46% | 1008.1 hPa | - | - | - | - |
| 1777325219 | 22.22° C | 46% | 1008.1 hPa | - | - | - | - |
| 1777324619 | 23.89° C | 46% | 1008.2 hPa | - | - | - | - |
| 1777324019 | 28.89° C | 42% | 1008.1 hPa | - | - | - | - |
| 1777323418 | 33.89° C | 31% | 1008.2 hPa | - | - | - | - |
| 1777322818 | 33.89° C | 33% | 1008 hPa | - | - | - | - |
| 1777322218 | 34.44° C | 42% | 1007.9 hPa | - | - | - | - |
| 1777321618 | 35° C | 42% | 1007.8 hPa | - | - | - | - |
| 1777321017 | 34.44° C | 43% | 1007.7 hPa | - | - | - | - |
| 1777320417 | 34.44° C | 43% | 1007.8 hPa | - | - | - | - |
| 1777319816 | 34.44° C | 42% | 1007.8 hPa | - | - | - | - |
| 1777319216 | 34.44° C | 42% | 1008 hPa | - | - | - | - |
| 1777318616 | 34.44° C | 42% | 1008.1 hPa | - | - | - | - |
| 1777318015 | 34.44° C | 41% | 1008.2 hPa | - | - | - | - |
| 1777317415 | 34.44° C | 40% | 1008.3 hPa | - | - | - | - |
| 1777316815 | 34.44° C | 44% | 1008.5 hPa | - | - | - | - |
| 1777316215 | 34.44° C | 46% | 1008.7 hPa | - | - | - | - |
| 1777315614 | 34.44° C | 45% | 1009 hPa | - | - | - | - |
| 1777315014 | 34.44° C | 46% | 1009.1 hPa | - | - | - | - |
* Rain since midnight (hover to see other rain measurements)
** Current wind speed in m/s (hover to see current wind gust speed)